createdAt,value
2022-11-28T00:01:37.059Z,7.24
2022-11-28T00:04:05.927Z,7.56
2022-11-28T00:06:36.793Z,7.41
2022-11-28T00:09:05.049Z,7.15
2022-11-28T00:11:32.895Z,7.56
2022-11-28T00:14:00.913Z,7.38
2022-11-28T00:16:30.141Z,7.61
2022-11-28T00:19:00.826Z,7.68
2022-11-28T00:21:29.011Z,7.96
2022-11-28T00:23:56.832Z,7.39
2022-11-28T00:26:27.191Z,7.09
2022-11-28T00:28:56.531Z,7.42
2022-11-28T00:31:27.268Z,7.56
2022-11-28T00:33:56.974Z,7.41
2022-11-28T00:36:25.291Z,7.36
2022-11-28T00:38:53.411Z,6.93
2022-11-28T00:41:23.580Z,7.56
2022-11-28T00:43:52.629Z,7.53
2022-11-28T00:46:22.073Z,7.24
2022-11-28T00:48:51.009Z,7.37
2022-11-28T00:51:21.836Z,6.91
2022-11-28T00:53:51.701Z,7.45
2022-11-28T00:56:20.986Z,7.54
2022-11-28T00:58:49.629Z,7.84
2022-11-28T01:01:19.843Z,7.47
2022-11-28T01:03:49.522Z,7.45
2022-11-28T01:06:23.800Z,7.79
2022-11-28T01:08:52.139Z,7.42
2022-11-28T01:11:20.470Z,7.41
2022-11-28T01:13:48.951Z,7.08
2022-11-28T01:16:16.918Z,7.37
2022-11-28T01:18:44.944Z,7.34
2022-11-28T01:21:12.817Z,7.60
2022-11-28T01:23:42.004Z,7.43
2022-11-28T01:26:10.924Z,6.99
2022-11-28T01:28:38.767Z,7.08
2022-11-28T01:31:07.642Z,6.85
2022-11-28T01:33:35.491Z,7.37
2022-11-28T01:36:04.243Z,7.24
2022-11-28T01:38:32.091Z,6.80
2022-11-28T01:41:02.122Z,7.02
2022-11-28T01:43:30.045Z,7.11
2022-11-28T01:45:58.343Z,7.31
2022-11-28T01:48:28.613Z,7.42
2022-11-28T01:50:59.320Z,7.22
2022-11-28T01:53:29.858Z,7.17
2022-11-28T01:56:00.885Z,6.87
2022-11-28T01:58:31.866Z,7.38
2022-11-28T02:01:00.611Z,7.00
2022-11-28T02:03:33.437Z,7.24
2022-11-28T02:06:01.699Z,6.69
2022-11-28T02:08:34.368Z,6.80
2022-11-28T02:11:20.396Z,6.88
2022-11-28T02:13:59.383Z,6.83
2022-11-28T02:16:53.217Z,6.77
2022-11-28T02:19:35.854Z,7.04
2022-11-28T02:22:09.575Z,7.01
2022-11-28T02:25:04.899Z,6.67
2022-11-28T02:28:13.629Z,7.01
2022-11-28T02:30:58.794Z,6.75
2022-11-28T02:33:32.964Z,6.77
2022-11-28T02:36:11.901Z,6.93
2022-11-28T02:38:52.267Z,6.71
2022-11-28T02:41:29.348Z,6.73
2022-11-28T02:44:07.544Z,6.85
2022-11-28T02:46:42.493Z,7.07
2022-11-28T02:49:17.211Z,6.73
2022-11-28T02:51:50.158Z,7.02
2022-11-28T02:54:19.647Z,6.67
2022-11-28T02:56:48.691Z,6.57
2022-11-28T02:59:32.178Z,6.71
2022-11-28T03:02:00.735Z,6.68
2022-11-28T03:04:38.229Z,6.86
2022-11-28T03:07:13.803Z,6.76
2022-11-28T03:09:57.169Z,6.48
2022-11-28T03:12:32.916Z,6.51
2022-11-28T03:15:03.583Z,6.64
2022-11-28T03:17:40.424Z,6.76
2022-11-28T03:20:19.681Z,6.61
2022-11-28T03:23:08.612Z,6.75
2022-11-28T03:25:42.148Z,6.70
2022-11-28T03:28:15.388Z,6.72
2022-11-28T03:30:46.020Z,6.73
2022-11-28T03:33:17.139Z,6.25
2022-11-28T03:35:50.277Z,6.67
2022-11-28T03:38:22.691Z,6.57
2022-11-28T03:40:54.166Z,6.65
2022-11-28T03:43:27.653Z,6.67
2022-11-28T03:46:02.924Z,6.43
2022-11-28T03:48:33.826Z,6.48
2022-11-28T03:51:08.621Z,6.87
2022-11-28T03:53:43.403Z,6.28
2022-11-28T03:56:15.868Z,6.64
2022-11-28T03:58:50.749Z,6.28
2022-11-28T04:01:29.567Z,6.29
2022-11-28T04:04:07.093Z,6.59
2022-11-28T04:06:45.559Z,6.45
2022-11-28T04:09:19.590Z,6.40
2022-11-28T04:11:52.953Z,6.40
2022-11-28T04:14:25.876Z,6.34
2022-11-28T04:16:59.287Z,6.55
2022-11-28T04:19:32.672Z,6.55
2022-11-28T04:22:05.893Z,6.52
2022-11-28T04:24:38.068Z,6.57
2022-11-28T04:27:09.654Z,6.62
2022-11-28T04:29:43.521Z,6.52
2022-11-28T04:32:14.573Z,6.57
2022-11-28T04:34:46.189Z,6.48
2022-11-28T04:37:17.046Z,6.24
2022-11-28T04:39:48.201Z,6.39
2022-11-28T04:42:20.311Z,6.43
2022-11-28T04:44:52.446Z,6.52
2022-11-28T04:47:20.670Z,6.38
2022-11-28T04:49:48.565Z,6.54
2022-11-28T04:52:24.300Z,6.70
2022-11-28T04:54:58.393Z,6.64
2022-11-28T04:57:31.674Z,6.63
2022-11-28T05:00:01.760Z,6.57
2022-11-28T05:02:30.539Z,6.25
2022-11-28T05:04:59.658Z,6.76
2022-11-28T05:07:28.914Z,6.85
2022-11-28T05:09:57.683Z,6.77
2022-11-28T05:12:25.568Z,6.25
2022-11-28T05:14:53.437Z,6.71
2022-11-28T05:17:21.255Z,6.37
2022-11-28T05:19:49.083Z,6.51
2022-11-28T05:22:16.922Z,6.52
2022-11-28T05:24:46.290Z,6.98
2022-11-28T05:27:14.319Z,7.09
2022-11-28T05:29:48.057Z,6.37
2022-11-28T05:32:19.655Z,6.75
2022-11-28T05:34:47.507Z,6.73
2022-11-28T05:37:15.379Z,6.78
2022-11-28T05:39:43.434Z,6.65
2022-11-28T05:42:12.769Z,6.63
2022-11-28T05:44:40.725Z,6.58
2022-11-28T05:47:08.555Z,6.69
2022-11-28T05:49:36.423Z,6.52
2022-11-28T05:52:04.298Z,7.03
2022-11-28T05:54:32.174Z,6.62
2022-11-28T05:57:00.014Z,6.63
2022-11-28T05:59:29.265Z,6.98
2022-11-28T06:01:57.134Z,6.88
2022-11-28T06:04:25.073Z,6.89
2022-11-28T06:06:53.678Z,6.61
2022-11-28T06:09:25.660Z,6.58
2022-11-28T06:11:54.255Z,6.84
2022-11-28T06:14:22.134Z,6.94
2022-11-28T06:16:51.406Z,6.67
2022-11-28T06:19:19.532Z,6.55
2022-11-28T06:21:47.561Z,6.68
2022-11-28T06:24:15.402Z,6.76
2022-11-28T06:26:43.205Z,6.38
2022-11-28T06:29:11.086Z,6.23
2022-11-28T06:31:38.947Z,6.82
2022-11-28T06:34:08.195Z,6.51
2022-11-28T06:36:36.195Z,6.41
2022-11-28T06:39:04.096Z,6.65
2022-11-28T06:41:31.935Z,6.96
2022-11-28T06:43:59.790Z,6.73
2022-11-28T06:46:27.637Z,6.66
2022-11-28T06:48:55.548Z,6.61
2022-11-28T06:51:24.749Z,6.96
2022-11-28T06:53:52.602Z,6.66
2022-11-28T06:56:21.281Z,6.69
2022-11-28T06:58:54.467Z,6.24
2022-11-28T07:01:23.061Z,6.63
2022-11-28T07:03:51.598Z,6.49
2022-11-28T07:06:20.335Z,6.55
2022-11-28T07:08:49.708Z,6.93
2022-11-28T07:11:20.335Z,6.50
2022-11-28T07:13:49.355Z,6.59
2022-11-28T07:16:19.178Z,6.67
2022-11-28T07:18:47.416Z,6.51
2022-11-28T07:21:16.080Z,6.42
2022-11-28T07:23:44.771Z,6.36
2022-11-28T07:26:16.605Z,6.44
2022-11-28T07:28:45.868Z,6.42
2022-11-28T07:31:18.232Z,6.50
2022-11-28T07:33:48.742Z,6.92
2022-11-28T07:36:18.807Z,6.56
2022-11-28T07:38:48.069Z,6.50
2022-11-28T07:41:19.053Z,6.89
2022-11-28T07:43:50.211Z,6.50
2022-11-28T07:46:19.975Z,6.31
2022-11-28T07:48:48.945Z,6.43
2022-11-28T07:51:19.703Z,6.92
2022-11-28T07:53:48.266Z,6.62
2022-11-28T07:56:18.998Z,6.53
2022-11-28T07:58:48.266Z,6.39
2022-11-28T08:01:18.529Z,6.92
2022-11-28T08:03:47.376Z,7.03
2022-11-28T08:06:16.994Z,7.25
2022-11-28T08:08:47.033Z,7.06
2022-11-28T08:11:18.728Z,6.73
2022-11-28T08:13:47.417Z,6.85
2022-11-28T08:16:18.265Z,6.53
2022-11-28T08:18:46.979Z,6.94
2022-11-28T08:21:17.709Z,6.81
2022-11-28T08:23:46.229Z,6.33
2022-11-28T08:26:15.925Z,6.52
2022-11-28T08:28:45.367Z,6.83
2022-11-28T08:31:14.917Z,7.17
2022-11-28T08:33:43.309Z,6.67
2022-11-28T08:36:13.266Z,6.43
2022-11-28T08:38:47.040Z,6.86
2022-11-28T08:41:23.379Z,6.91
2022-11-28T08:43:52.577Z,6.98
2022-11-28T08:46:22.371Z,7.15
2022-11-28T08:48:52.096Z,7.01
2022-11-28T08:51:23.935Z,7.41
2022-11-28T08:53:59.035Z,7.45
2022-11-28T08:56:27.725Z,7.60
2022-11-28T08:58:57.056Z,7.71
2022-11-28T09:01:26.638Z,7.12
2022-11-28T09:03:55.883Z,7.28
2022-11-28T09:06:24.547Z,6.65
2022-11-28T09:08:53.503Z,7.20
2022-11-28T09:11:22.546Z,7.96
2022-11-28T09:13:50.758Z,7.10
2022-11-28T09:16:20.974Z,7.44
2022-11-28T09:18:48.859Z,7.27
2022-11-28T09:21:16.983Z,7.49
2022-11-28T09:23:45.866Z,7.59
2022-11-28T09:26:15.618Z,8.29
2022-11-28T09:28:44.362Z,9.66
2022-11-28T09:31:13.693Z,9.77
2022-11-28T09:33:43.743Z,10.65
2022-11-28T09:36:14.030Z,10.31
2022-11-28T09:38:42.496Z,10.28
2022-11-28T09:41:40.509Z,10.76
2022-11-28T09:44:13.497Z,9.08
2022-11-28T09:46:42.332Z,8.48
2022-11-28T09:49:24.605Z,7.72
2022-11-28T09:51:56.208Z,7.93
2022-11-28T09:54:33.458Z,7.59
2022-11-28T09:57:04.250Z,7.78
2022-11-28T09:59:32.734Z,7.73
2022-11-28T10:02:08.738Z,7.97
2022-11-28T10:04:43.057Z,8.15
2022-11-28T10:07:20.552Z,8.41
2022-11-28T10:09:58.253Z,7.85
2022-11-28T10:12:44.528Z,7.88
2022-11-28T10:15:32.041Z,8.63
2022-11-28T10:18:11.289Z,8.10
2022-11-28T10:20:44.424Z,7.92
2022-11-28T10:23:17.480Z,7.74
2022-11-28T10:25:50.423Z,7.73
2022-11-28T10:28:23.191Z,8.56
2022-11-28T10:30:58.853Z,8.07
2022-11-28T10:33:31.040Z,7.82
2022-11-28T10:36:02.650Z,7.96
2022-11-28T10:38:34.151Z,7.49
2022-11-28T10:41:09.244Z,8.11
2022-11-28T10:43:45.088Z,7.70
2022-11-28T10:46:50.192Z,7.60
2022-11-28T10:49:31.325Z,8.56
2022-11-28T10:52:10.659Z,8.37
2022-11-28T10:55:00.593Z,8.27
2022-11-28T10:57:36.203Z,8.28
2022-11-28T11:00:10.684Z,7.91
2022-11-28T11:02:42.349Z,7.91
2022-11-28T11:05:14.517Z,8.54
2022-11-28T11:07:50.488Z,8.02
2022-11-28T11:10:20.414Z,8.17
2022-11-28T11:12:52.108Z,8.47
2022-11-28T11:15:25.773Z,8.03
2022-11-28T11:17:53.642Z,8.13
2022-11-28T11:20:34.716Z,9.09
2022-11-28T11:23:13.977Z,8.33
2022-11-28T11:25:49.848Z,8.54
2022-11-28T11:28:33.286Z,8.35
2022-11-28T11:31:03.542Z,7.88
2022-11-28T11:33:39.281Z,8.52
2022-11-28T11:36:23.127Z,8.51
2022-11-28T11:38:52.550Z,8.53
2022-11-28T11:41:29.515Z,8.27
2022-11-28T11:43:57.779Z,8.49
2022-11-28T11:46:25.640Z,8.47
2022-11-28T11:48:54.362Z,8.60
2022-11-28T11:51:25.987Z,8.47
2022-11-28T11:54:07.042Z,8.26
2022-11-28T11:56:38.843Z,8.22
2022-11-28T11:59:15.228Z,8.88
2022-11-28T12:01:44.580Z,8.28
2022-11-28T12:04:43.825Z,8.84
2022-11-28T12:07:21.336Z,9.06
2022-11-28T12:09:54.811Z,9.02
2022-11-28T12:12:25.899Z,9.02
2022-11-28T12:14:53.728Z,8.70
2022-11-28T12:17:48.799Z,8.96
2022-11-28T12:20:38.735Z,8.43
2022-11-28T12:23:43.820Z,9.01
2022-11-28T12:26:20.069Z,8.94
2022-11-28T12:29:09.341Z,8.98
2022-11-28T12:31:48.770Z,8.86
2022-11-28T12:34:26.733Z,9.09
2022-11-28T12:37:03.954Z,9.18
2022-11-28T12:39:40.305Z,9.25
2022-11-28T12:42:28.426Z,8.88
2022-11-28T12:45:30.605Z,9.47
2022-11-28T12:48:09.829Z,9.53
2022-11-28T12:50:40.563Z,9.46
2022-11-28T12:53:39.362Z,8.90
2022-11-28T12:56:17.942Z,9.16
2022-11-28T12:58:54.487Z,8.37
2022-11-28T13:01:37.502Z,9.00
2022-11-28T13:04:18.470Z,9.12
2022-11-28T13:06:56.377Z,9.15
2022-11-28T13:09:31.653Z,9.43
2022-11-28T13:12:15.372Z,9.31
2022-11-28T13:14:52.227Z,8.71
2022-11-28T13:17:35.776Z,8.79
2022-11-28T13:20:07.595Z,9.24
2022-11-28T13:22:47.526Z,8.92
2022-11-28T13:25:25.778Z,8.75
2022-11-28T13:27:59.770Z,9.14
2022-11-28T13:30:33.460Z,8.94
2022-11-28T13:33:08.566Z,8.71
2022-11-28T13:35:37.141Z,8.38
2022-11-28T13:41:22.642Z,8.86
2022-11-28T13:44:03.820Z,8.77
2022-11-28T13:46:35.087Z,8.78
2022-11-28T13:49:20.499Z,8.85
2022-11-28T13:51:49.141Z,8.67
2022-11-28T13:54:48.829Z,8.58
2022-11-28T13:57:36.827Z,8.45
2022-11-28T14:00:21.208Z,8.10
2022-11-28T14:02:54.174Z,7.79
2022-11-28T14:05:29.569Z,8.36
2022-11-28T14:07:59.483Z,8.25
2022-11-28T14:10:53.631Z,8.49
2022-11-28T14:13:48.420Z,8.48
2022-11-28T14:16:29.675Z,8.02
2022-11-28T14:19:14.034Z,8.13
2022-11-28T14:21:54.330Z,8.32
2022-11-28T14:24:34.961Z,8.19
2022-11-28T14:27:06.285Z,7.71
2022-11-28T14:29:38.263Z,7.82
2022-11-28T14:32:29.109Z,8.25
2022-11-28T14:34:56.943Z,8.19
2022-11-28T14:37:57.483Z,7.43
2022-11-28T14:41:05.454Z,7.56
2022-11-28T14:43:36.261Z,7.34
2022-11-28T14:46:29.571Z,7.18
2022-11-28T14:49:29.544Z,7.64
2022-11-28T14:52:41.105Z,8.02
2022-11-28T14:55:21.817Z,7.71
2022-11-28T14:57:56.857Z,7.56
2022-11-28T15:00:27.791Z,8.00
2022-11-28T15:03:11.572Z,8.05
2022-11-28T15:05:45.202Z,7.91
2022-11-28T15:08:29.651Z,7.85
2022-11-28T15:11:11.626Z,7.23
2022-11-28T15:13:55.866Z,7.53
2022-11-28T15:16:24.881Z,7.32
2022-11-28T15:18:59.413Z,7.28
2022-11-28T15:21:29.092Z,7.22
2022-11-28T15:23:58.327Z,7.63
2022-11-28T15:26:29.575Z,7.49
2022-11-28T15:29:11.155Z,7.39
2022-11-28T15:31:39.183Z,7.28
2022-11-28T15:34:09.900Z,7.23
2022-11-28T15:36:40.276Z,7.21
2022-11-28T15:39:31.813Z,7.48
2022-11-28T15:42:02.697Z,6.93
2022-11-28T15:44:31.415Z,7.26
2022-11-28T15:46:59.680Z,7.10
2022-11-28T15:49:30.572Z,6.93
2022-11-28T15:52:02.936Z,7.21
2022-11-28T15:54:42.639Z,7.33
2022-11-28T15:57:20.362Z,7.30
2022-11-28T15:59:48.558Z,7.16
2022-11-28T16:02:23.566Z,7.14
2022-11-28T16:04:56.077Z,6.95
2022-11-28T16:07:23.971Z,6.68
2022-11-28T16:09:59.381Z,7.15
2022-11-28T16:12:28.612Z,7.42
2022-11-28T16:15:01.724Z,7.08
2022-11-28T16:17:33.490Z,6.75
2022-11-28T16:20:03.596Z,7.04
2022-11-28T16:22:36.493Z,7.30
2022-11-28T16:25:23.375Z,7.07
2022-11-28T16:27:53.323Z,6.96
2022-11-28T16:30:36.788Z,7.16
2022-11-28T16:33:25.905Z,7.05
2022-11-28T16:35:53.871Z,7.09
2022-11-28T16:38:24.615Z,7.20
2022-11-28T16:41:00.889Z,6.88
2022-11-28T16:43:32.244Z,6.61
2022-11-28T16:46:01.470Z,7.02
2022-11-28T16:48:31.977Z,6.73
2022-11-28T16:51:30.385Z,6.87
2022-11-28T16:53:59.792Z,7.18
2022-11-28T16:56:43.862Z,6.79
2022-11-28T16:59:14.358Z,6.64
2022-11-28T17:01:43.838Z,6.69
2022-11-28T17:04:21.423Z,6.85
2022-11-28T17:06:49.920Z,7.23
2022-11-28T17:09:17.801Z,6.84
2022-11-28T17:11:51.691Z,6.77
2022-11-28T17:14:19.530Z,6.46
2022-11-28T17:16:47.402Z,6.75
2022-11-28T17:19:15.292Z,6.40
2022-11-28T17:21:45.971Z,6.83
2022-11-28T17:24:18.217Z,6.51
2022-11-28T17:26:47.463Z,6.77
2022-11-28T17:29:16.887Z,6.73
2022-11-28T17:31:46.831Z,6.60
2022-11-28T17:34:17.624Z,6.65
2022-11-28T17:36:45.902Z,6.39
2022-11-28T17:39:14.420Z,6.41
2022-11-28T17:41:43.156Z,6.57
2022-11-28T17:44:18.120Z,6.95
2022-11-28T17:46:46.232Z,7.02
2022-11-28T17:49:14.391Z,6.60
2022-11-28T17:51:43.114Z,6.85
2022-11-28T17:54:14.017Z,6.39
2022-11-28T17:56:42.088Z,6.71
2022-11-28T17:59:10.471Z,6.94
2022-11-28T18:01:40.429Z,7.01
2022-11-28T18:04:08.528Z,6.75
2022-11-28T18:06:36.701Z,6.80
2022-11-28T18:09:11.578Z,6.84
2022-11-28T18:11:40.671Z,6.48
2022-11-28T18:14:09.848Z,6.67
2022-11-28T18:16:40.142Z,6.56
2022-11-28T18:19:09.675Z,6.91
2022-11-28T18:21:38.409Z,6.40
2022-11-28T18:24:06.890Z,6.89
2022-11-28T18:26:35.981Z,6.91
2022-11-28T18:29:04.015Z,7.02
2022-11-28T18:31:33.493Z,7.02
2022-11-28T18:34:02.741Z,6.60
2022-11-28T18:36:37.866Z,6.69
2022-11-28T18:39:08.913Z,6.26
2022-11-28T18:41:36.915Z,6.30
2022-11-28T18:44:06.437Z,6.18
2022-11-28T18:46:35.590Z,6.57
2022-11-28T18:49:04.483Z,6.25
2022-11-28T18:51:36.706Z,6.36
2022-11-28T18:54:05.988Z,6.16
2022-11-28T18:56:36.132Z,6.32
2022-11-28T18:59:05.427Z,6.00
2022-11-28T19:01:36.671Z,6.52
2022-11-28T19:04:09.296Z,5.78
2022-11-28T19:06:40.464Z,6.11
2022-11-28T19:09:12.594Z,6.63
2022-11-28T19:11:41.690Z,6.87
2022-11-28T19:14:11.890Z,6.79
2022-11-28T19:16:40.334Z,6.92
2022-11-28T19:19:08.395Z,6.06
2022-11-28T19:21:38.866Z,6.59
2022-11-28T19:24:08.769Z,6.36
2022-11-28T19:26:38.098Z,6.60
2022-11-28T19:29:06.497Z,6.56
2022-11-28T19:31:36.664Z,6.38
2022-11-28T19:34:07.830Z,6.46
2022-11-28T19:36:39.447Z,6.76
2022-11-28T19:39:09.477Z,6.66
2022-11-28T19:41:37.815Z,6.77
2022-11-28T19:44:05.864Z,6.48
2022-11-28T19:46:35.670Z,6.32
2022-11-28T19:49:05.426Z,6.20
2022-11-28T19:51:34.249Z,6.35
2022-11-28T19:54:03.808Z,6.49
2022-11-28T19:56:34.439Z,6.73
2022-11-28T19:59:03.038Z,6.54
2022-11-28T20:01:30.945Z,6.86
2022-11-28T20:03:59.634Z,6.52
2022-11-28T20:06:29.780Z,6.28
2022-11-28T20:09:01.490Z,6.47
2022-11-28T20:11:32.364Z,6.25
2022-11-28T20:14:03.451Z,6.34
2022-11-28T20:16:34.455Z,6.19
2022-11-28T20:19:02.901Z,6.50
2022-11-28T20:21:31.974Z,6.51
2022-11-28T20:24:04.579Z,6.71
2022-11-28T20:26:37.698Z,6.89
2022-11-28T20:29:08.080Z,6.96
2022-11-28T20:31:38.028Z,7.05
2022-11-28T20:34:06.465Z,6.58
2022-11-28T20:36:36.390Z,6.49
2022-11-28T20:39:05.905Z,6.87
2022-11-28T20:41:34.556Z,7.08
2022-11-28T20:44:03.128Z,6.40
2022-11-28T20:46:35.448Z,6.71
2022-11-28T20:49:05.811Z,6.36
2022-11-28T20:51:35.527Z,6.46
2022-11-28T20:54:05.763Z,6.71
2022-11-28T20:56:51.695Z,6.24
2022-11-28T20:59:23.226Z,6.56
2022-11-28T21:01:52.595Z,6.42
2022-11-28T21:04:20.466Z,6.56
2022-11-28T21:06:49.187Z,6.72
2022-11-28T21:09:19.977Z,6.94
2022-11-28T21:11:58.150Z,6.72
2022-11-28T21:14:27.397Z,6.96
2022-11-28T21:16:57.250Z,6.80
2022-11-28T21:19:25.224Z,6.76
2022-11-28T21:21:53.197Z,6.88
2022-11-28T21:24:21.391Z,6.66
2022-11-28T21:26:53.337Z,6.28
2022-11-28T21:29:21.685Z,6.63
2022-11-28T21:31:49.704Z,6.62
2022-11-28T21:34:19.444Z,7.09
2022-11-28T21:36:48.337Z,6.91
2022-11-28T21:39:18.691Z,6.64
2022-11-28T21:41:46.964Z,6.28
2022-11-28T21:44:14.869Z,6.26
2022-11-28T21:46:43.792Z,6.30
2022-11-28T21:49:13.068Z,6.66
2022-11-28T21:51:42.603Z,6.58
2022-11-28T21:54:11.967Z,6.73
2022-11-28T21:56:40.078Z,6.95
2022-11-28T21:59:08.580Z,6.40
2022-11-28T22:01:36.877Z,6.66
2022-11-28T22:04:05.130Z,6.97
2022-11-28T22:06:33.766Z,6.47
2022-11-28T22:09:09.069Z,6.57
2022-11-28T22:11:38.618Z,6.79
2022-11-28T22:14:06.570Z,6.81
2022-11-28T22:16:35.055Z,6.70
2022-11-28T22:19:04.004Z,7.16
2022-11-28T22:24:22.873Z,6.79
2022-11-28T22:26:51.140Z,6.75
2022-11-28T22:29:19.764Z,6.75
2022-11-28T22:31:47.810Z,6.84
2022-11-28T22:34:15.736Z,6.94
2022-11-28T22:36:44.105Z,6.46
2022-11-28T22:39:12.460Z,6.52
2022-11-28T22:41:41.796Z,6.71
2022-11-28T22:44:11.614Z,6.27
2022-11-28T22:46:43.111Z,6.43
2022-11-28T22:49:12.004Z,6.36
2022-11-28T22:51:40.869Z,6.31
2022-11-28T22:54:12.821Z,6.37
2022-11-28T22:56:42.355Z,6.31
2022-11-28T22:59:13.438Z,6.51
2022-11-28T23:01:43.521Z,6.30
2022-11-28T23:04:12.285Z,6.34
2022-11-28T23:06:40.524Z,6.67
2022-11-28T23:09:11.413Z,6.45
2022-11-28T23:11:40.876Z,6.75
2022-11-28T23:14:13.190Z,6.73
2022-11-28T23:16:43.348Z,6.37
2022-11-28T23:19:13.694Z,6.09
2022-11-28T23:21:43.914Z,6.19
2022-11-28T23:24:14.496Z,6.07
2022-11-28T23:26:44.748Z,6.31
2022-11-28T23:29:15.481Z,6.41
2022-11-28T23:31:44.636Z,6.50
2022-11-28T23:34:12.831Z,6.60
2022-11-28T23:36:43.324Z,6.51
2022-11-28T23:39:13.753Z,6.74
2022-11-28T23:41:42.176Z,6.53
2022-11-28T23:44:11.408Z,6.73
2022-11-28T23:46:41.114Z,7.01
2022-11-28T23:49:10.003Z,6.91
2022-11-28T23:51:40.044Z,6.52
2022-11-28T23:54:08.527Z,6.23
2022-11-28T23:56:38.423Z,6.24
2022-11-28T23:59:08.827Z,6.11
